Terminal Aerodrome Forecast
Issued by NWS Pueblo, CO

Home | Current Version | Previous Version | Text Only | Print | Product List | Glossary On
Versions: 1 2 3 4 5 6 7 8 9 10 11 12 13 14 15 16 17 18 19 20 21 22 23 24 25 26 27 28 29 30 31 32 33 34 35 36 37 38 39 40 41 42 43 44 45 46 47 48
000
FTUS45 KPUB 050220 AAA
TAFCOS
TAF AMD
KCOS 050220Z 0502/0524 17012KT P6SM VCTS FEW080CB SCT140 BKN200
      TEMPO 0502/0504 32015G25KT
     FM050400 33006KT P6SM SCT100 BKN200
     FM051700 16008KT P6SM FEW100 SCT200
     FM051900 20013KT P6SM VCTS SCT080CB BKN200=

USA.gov is the U.S. government's official web portal to all federal, state and local government web resources and services.